createdAt,value
2018-09-14T00:01:24.703Z,41.75
2018-09-14T00:03:53.746Z,41.66
2018-09-14T00:06:22.809Z,41.95
2018-09-14T00:08:54.036Z,42.05
2018-09-14T00:11:23.090Z,41.99
2018-09-14T00:13:52.226Z,42.12
2018-09-14T00:16:21.306Z,41.85
2018-09-14T00:18:50.514Z,42.01
2018-09-14T00:21:19.603Z,42.14
2018-09-14T00:23:48.682Z,42.00
2018-09-14T00:26:17.765Z,41.96
2018-09-14T00:28:47.296Z,41.91
2018-09-14T00:31:16.400Z,42.02
2018-09-14T00:33:46.154Z,41.78
2018-09-14T00:36:15.220Z,41.88
2018-09-14T00:38:44.583Z,42.00
2018-09-14T00:41:13.722Z,42.12
2018-09-14T00:43:42.785Z,42.01
2018-09-14T00:46:11.903Z,41.87
2018-09-14T00:48:40.959Z,42.21
2018-09-14T00:51:10.106Z,41.71
2018-09-14T00:53:39.163Z,42.01
2018-09-14T00:56:08.267Z,42.24
2018-09-14T00:58:37.315Z,41.91
2018-09-14T01:01:06.477Z,41.90
2018-09-14T01:03:35.536Z,42.21
2018-09-14T01:06:04.660Z,42.13
2018-09-14T01:08:33.881Z,42.42
2018-09-14T01:11:02.952Z,41.84
2018-09-14T01:13:32.037Z,42.14
2018-09-14T01:16:01.129Z,42.29
2018-09-14T01:18:30.251Z,41.98
2018-09-14T01:20:59.606Z,41.99
2018-09-14T01:23:28.762Z,42.10
2018-09-14T01:25:57.883Z,42.12
2018-09-14T01:28:26.964Z,42.00
2018-09-14T01:30:56.029Z,42.36
2018-09-14T01:33:25.100Z,42.00
2018-09-14T01:35:59.399Z,42.10
2018-09-14T01:38:28.484Z,42.36
2018-09-14T01:40:57.656Z,42.13
2018-09-14T01:43:26.696Z,42.19
2018-09-14T01:45:55.818Z,42.00
2018-09-14T01:48:24.908Z,42.37
2018-09-14T01:50:54.188Z,42.39
2018-09-14T01:53:23.376Z,42.43
2018-09-14T01:55:52.634Z,41.97
2018-09-14T01:58:21.698Z,42.40
2018-09-14T02:00:51.052Z,41.95
2018-09-14T02:03:20.230Z,42.34
2018-09-14T02:05:49.536Z,42.04
2018-09-14T02:08:18.626Z,42.48
2018-09-14T02:10:47.706Z,42.31
2018-09-14T02:13:16.807Z,42.26
2018-09-14T02:15:45.897Z,41.94
2018-09-14T02:18:14.979Z,41.86
2018-09-14T02:20:44.087Z,42.25
2018-09-14T02:23:13.155Z,42.02
2018-09-14T02:25:42.371Z,42.38
2018-09-14T02:28:11.708Z,42.17
2018-09-14T02:30:40.790Z,41.90
2018-09-14T02:33:09.898Z,41.72
2018-09-14T02:35:38.976Z,41.90
2018-09-14T02:38:08.096Z,41.91
2018-09-14T02:40:37.158Z,42.60
2018-09-14T02:43:06.251Z,41.90
2018-09-14T02:45:35.584Z,42.20
2018-09-14T02:48:05.025Z,42.06
2018-09-14T02:50:34.121Z,42.18
2018-09-14T02:53:03.255Z,42.27
2018-09-14T02:55:32.595Z,41.93
2018-09-14T02:58:01.761Z,41.83
2018-09-14T03:00:31.166Z,42.00
2018-09-14T03:03:05.635Z,42.05
2018-09-14T03:05:40.066Z,41.85
2018-09-14T03:08:09.251Z,41.86
2018-09-14T03:10:38.317Z,41.94
2018-09-14T03:13:07.380Z,42.26
2018-09-14T03:15:36.515Z,42.09
2018-09-14T03:18:05.810Z,42.01
2018-09-14T03:20:34.874Z,42.04
2018-09-14T03:23:04.004Z,41.99
2018-09-14T03:25:33.101Z,41.97
2018-09-14T03:28:02.175Z,42.29
2018-09-14T03:30:31.271Z,42.33
2018-09-14T03:33:00.352Z,42.14
2018-09-14T03:35:29.485Z,42.13
2018-09-14T03:37:58.555Z,42.17
2018-09-14T03:40:27.671Z,41.89
2018-09-14T03:42:56.735Z,41.96
2018-09-14T03:45:25.869Z,42.23
2018-09-14T03:47:55.065Z,42.39
2018-09-14T03:50:24.120Z,42.26
2018-09-14T03:52:53.258Z,42.23
2018-09-14T03:55:22.355Z,41.94
2018-09-14T03:57:51.386Z,41.90
2018-09-14T04:00:20.447Z,42.07
2018-09-14T04:02:49.543Z,42.30
2018-09-14T04:05:18.609Z,41.92
2018-09-14T04:07:47.778Z,42.19
2018-09-14T04:10:17.016Z,42.35
2018-09-14T04:12:46.075Z,42.30
2018-09-14T04:15:15.108Z,41.97
2018-09-14T04:17:44.218Z,41.85
2018-09-14T04:20:13.313Z,42.16
2018-09-14T04:22:42.416Z,41.96
2018-09-14T04:25:11.495Z,42.07
2018-09-14T04:27:40.792Z,42.28
2018-09-14T04:30:10.117Z,42.25
2018-09-14T04:32:39.179Z,42.04
2018-09-14T04:35:08.259Z,41.94
2018-09-14T04:37:37.393Z,42.16
2018-09-14T04:40:06.519Z,42.19
2018-09-14T04:42:35.675Z,42.09
2018-09-14T04:45:04.896Z,42.18
2018-09-14T04:47:33.939Z,42.09
2018-09-14T04:50:03.013Z,42.12
2018-09-14T04:52:32.344Z,42.34
2018-09-14T04:55:01.476Z,42.15
2018-09-14T04:57:30.662Z,42.39
2018-09-14T04:59:59.793Z,42.21
2018-09-14T05:02:28.967Z,42.35
2018-09-14T05:04:58.057Z,42.23
2018-09-14T05:07:27.265Z,41.97
2018-09-14T05:09:56.435Z,42.06
2018-09-14T05:12:25.545Z,42.22
2018-09-14T05:14:54.642Z,42.38
2018-09-14T05:17:23.728Z,42.15
2018-09-14T05:19:52.844Z,42.19
2018-09-14T05:22:21.939Z,42.17
2018-09-14T05:24:51.079Z,42.25
2018-09-14T05:27:20.328Z,42.36
2018-09-14T05:29:49.536Z,42.11
2018-09-14T05:32:18.528Z,42.19
2018-09-14T05:34:47.568Z,42.12
2018-09-14T05:37:16.644Z,42.21
2018-09-14T05:39:45.798Z,41.91
2018-09-14T05:42:14.896Z,42.01
2018-09-14T05:44:43.986Z,42.44
2018-09-14T05:47:13.108Z,42.48
2018-09-14T05:49:42.184Z,41.96
2018-09-14T05:52:11.294Z,42.24
2018-09-14T05:54:40.351Z,42.17
2018-09-14T05:57:09.324Z,42.11
2018-09-14T05:59:38.399Z,41.87
2018-09-14T06:02:07.477Z,41.93
2018-09-14T06:04:36.539Z,41.85
2018-09-14T06:07:05.770Z,41.89
2018-09-14T06:09:34.855Z,42.43
2018-09-14T06:12:03.908Z,41.67
2018-09-14T06:14:33.597Z,41.79
2018-09-14T06:17:02.724Z,41.77
2018-09-14T06:19:32.104Z,42.08
2018-09-14T06:22:01.177Z,41.88
2018-09-14T06:24:30.342Z,42.07
2018-09-14T06:26:59.420Z,41.83
2018-09-14T06:29:28.510Z,41.94
2018-09-14T06:31:57.584Z,41.99
2018-09-14T06:34:26.662Z,41.84
2018-09-14T06:36:55.839Z,41.62
2018-09-14T06:39:25.124Z,41.46
2018-09-14T06:41:54.247Z,41.71
2018-09-14T06:44:23.336Z,41.98
2018-09-14T06:46:52.403Z,41.72
2018-09-14T06:49:21.569Z,41.89
2018-09-14T06:51:56.255Z,41.84
2018-09-14T06:54:25.331Z,41.89
2018-09-14T06:56:54.380Z,41.62
2018-09-14T06:59:23.541Z,41.80
2018-09-14T07:01:52.632Z,41.93
2018-09-14T07:04:21.631Z,41.49
2018-09-14T07:06:52.164Z,41.64
2018-09-14T07:09:21.249Z,41.91
2018-09-14T07:11:50.300Z,41.29
2018-09-14T07:14:19.435Z,41.71
2018-09-14T07:16:48.618Z,41.89
2018-09-14T07:19:17.720Z,41.91
2018-09-14T07:21:46.870Z,41.58
2018-09-14T07:24:16.177Z,41.65
2018-09-14T07:26:45.539Z,41.64
2018-09-14T07:29:14.915Z,41.49
2018-09-14T07:31:44.163Z,41.46
2018-09-14T07:34:13.387Z,41.25
2018-09-14T07:36:42.506Z,41.58
2018-09-14T07:39:12.397Z,41.50
2018-09-14T07:41:41.800Z,41.45
2018-09-14T07:44:10.962Z,41.32
2018-09-14T07:46:40.036Z,41.23
2018-09-14T07:49:09.119Z,41.34
2018-09-14T07:51:38.218Z,41.24
2018-09-14T07:54:07.336Z,41.01
2018-09-14T07:56:36.404Z,41.29
2018-09-14T07:59:05.633Z,41.23
2018-09-14T08:01:34.688Z,41.43
2018-09-14T08:04:03.794Z,41.14
2018-09-14T08:06:32.912Z,41.02
2018-09-14T08:09:02.118Z,41.13
2018-09-14T08:11:31.302Z,41.20
2018-09-14T08:14:00.372Z,41.01
2018-09-14T08:16:29.439Z,41.18
2018-09-14T08:18:58.504Z,41.07
2018-09-14T08:21:27.638Z,40.89
2018-09-14T08:23:56.851Z,41.02
2018-09-14T08:26:25.999Z,41.26
2018-09-14T08:28:55.068Z,41.15
2018-09-14T08:31:24.499Z,40.96
2018-09-14T08:33:53.827Z,41.21
2018-09-14T08:36:23.204Z,40.85
2018-09-14T08:38:52.299Z,41.15
2018-09-14T08:41:21.385Z,40.79
2018-09-14T08:43:50.466Z,41.12
2018-09-14T08:46:19.525Z,40.66
2018-09-14T08:48:48.861Z,41.05
2018-09-14T08:51:17.976Z,40.97
2018-09-14T08:53:47.073Z,40.80
2018-09-14T08:56:16.173Z,40.98
2018-09-14T08:58:45.368Z,40.73
2018-09-14T09:01:14.468Z,40.58
2018-09-14T09:03:43.543Z,40.56
2018-09-14T09:06:13.004Z,40.65
2018-09-14T09:08:42.167Z,41.01
2018-09-14T09:11:11.233Z,40.63
2018-09-14T09:13:40.321Z,40.84
2018-09-14T09:16:09.402Z,40.65
2018-09-14T09:18:38.530Z,40.85
2018-09-14T09:21:07.656Z,40.94
2018-09-14T09:23:36.924Z,40.65
2018-09-14T09:26:06.039Z,40.75
2018-09-14T09:28:35.038Z,40.83
2018-09-14T09:31:04.220Z,40.71
2018-09-14T09:33:33.309Z,40.78
2018-09-14T09:36:02.527Z,40.97
2018-09-14T09:38:31.839Z,40.95
2018-09-14T09:41:01.002Z,41.24
2018-09-14T09:43:30.335Z,40.94
2018-09-14T09:45:59.540Z,41.27
2018-09-14T09:48:28.612Z,40.86
2018-09-14T09:50:57.808Z,40.69
2018-09-14T09:53:27.014Z,40.83
2018-09-14T09:55:56.048Z,40.93
2018-09-14T09:58:25.307Z,40.15
2018-09-14T10:00:59.726Z,40.74
2018-09-14T10:03:34.382Z,40.74
2018-09-14T10:06:08.800Z,40.81
2018-09-14T10:08:37.946Z,41.08
2018-09-14T10:11:07.130Z,40.83
2018-09-14T10:13:36.240Z,40.81
2018-09-14T10:16:05.444Z,40.98
2018-09-14T10:18:34.766Z,40.60
2018-09-14T10:21:03.898Z,41.08
2018-09-14T10:23:33.265Z,39.95
2018-09-14T10:26:02.304Z,40.70
2018-09-14T10:28:31.423Z,40.92
2018-09-14T10:31:00.638Z,40.99
2018-09-14T10:33:29.728Z,39.63
2018-09-14T10:35:58.822Z,40.85
2018-09-14T10:38:28.090Z,39.88
2018-09-14T10:40:57.285Z,39.94
2018-09-14T10:43:26.264Z,40.90
2018-09-14T10:45:55.370Z,40.36
2018-09-14T10:48:24.455Z,40.41
2018-09-14T10:50:53.612Z,41.01
2018-09-14T10:53:22.742Z,40.52
2018-09-14T10:55:51.920Z,39.94
2018-09-14T10:58:21.013Z,39.74
2018-09-14T11:00:50.369Z,39.94
2018-09-14T11:03:19.590Z,40.21
2018-09-14T11:05:48.713Z,39.33
2018-09-14T11:08:17.767Z,39.88
2018-09-14T11:10:46.789Z,39.90
2018-09-14T11:13:15.883Z,39.76
2018-09-14T11:15:44.995Z,39.86
2018-09-14T11:18:14.082Z,40.27
2018-09-14T11:20:43.216Z,40.15
2018-09-14T11:23:12.466Z,39.07
2018-09-14T11:25:41.583Z,39.23
2018-09-14T11:28:10.880Z,39.66
2018-09-14T11:30:40.189Z,39.03
2018-09-14T11:33:09.277Z,39.59
2018-09-14T11:35:38.378Z,40.23
2018-09-14T11:38:07.488Z,39.88
2018-09-14T11:40:36.764Z,39.59
2018-09-14T11:43:05.869Z,39.18
2018-09-14T11:45:34.960Z,39.83
2018-09-14T11:48:04.083Z,39.79
2018-09-14T11:50:33.150Z,39.39
2018-09-14T11:53:02.266Z,38.88
2018-09-14T11:55:31.351Z,39.18
2018-09-14T11:58:00.486Z,38.87
2018-09-14T12:00:29.928Z,39.58
2018-09-14T12:02:59.052Z,39.08
2018-09-14T12:05:28.247Z,39.59
2018-09-14T12:07:57.342Z,39.54
2018-09-14T12:10:26.436Z,39.46
2018-09-14T12:12:55.636Z,39.50
2018-09-14T12:15:24.679Z,39.25
2018-09-14T12:17:53.744Z,38.95
2018-09-14T12:20:23.024Z,39.57
2018-09-14T12:22:52.102Z,39.11
2018-09-14T12:25:21.187Z,39.61
2018-09-14T12:27:50.262Z,39.71
2018-09-14T12:30:19.512Z,39.82
2018-09-14T12:32:48.709Z,39.38
2018-09-14T12:35:17.789Z,39.38
2018-09-14T12:37:46.869Z,39.05
2018-09-14T12:40:15.979Z,39.19
2018-09-14T12:42:45.072Z,39.03
2018-09-14T12:45:14.191Z,38.79
2018-09-14T12:47:43.303Z,38.36
2018-09-14T12:50:12.463Z,39.32
2018-09-14T12:52:41.542Z,38.99
2018-09-14T12:55:10.676Z,38.66
2018-09-14T12:57:39.668Z,39.02
2018-09-14T13:00:08.899Z,39.44
2018-09-14T13:02:38.582Z,39.41
2018-09-14T13:05:07.815Z,39.34
2018-09-14T13:07:36.951Z,38.94
2018-09-14T13:10:06.213Z,38.79
2018-09-14T13:12:44.705Z,39.21
2018-09-14T13:15:13.887Z,39.09
2018-09-14T13:17:42.959Z,38.81
2018-09-14T13:20:12.079Z,39.21
2018-09-14T13:22:41.211Z,39.31
2018-09-14T13:25:10.555Z,39.17
2018-09-14T13:27:39.552Z,39.03
2018-09-14T13:30:08.611Z,39.06
2018-09-14T13:32:38.537Z,39.41
2018-09-14T13:35:07.677Z,39.35
2018-09-14T13:37:38.395Z,38.89
2018-09-14T13:40:07.527Z,39.11
2018-09-14T13:42:36.759Z,39.14
2018-09-14T13:45:05.961Z,39.02
2018-09-14T13:47:35.089Z,39.01
2018-09-14T13:50:04.087Z,38.93
2018-09-14T13:52:33.203Z,38.75
2018-09-14T13:55:02.290Z,38.96
2018-09-14T13:57:31.344Z,39.22
2018-09-14T14:00:00.709Z,38.92
2018-09-14T14:02:29.788Z,38.88
2018-09-14T14:04:58.890Z,39.07
2018-09-14T14:07:28.070Z,38.81
2018-09-14T14:09:57.160Z,39.06
2018-09-14T14:12:26.404Z,39.38
2018-09-14T14:14:55.578Z,39.32
2018-09-14T14:17:24.819Z,39.24
2018-09-14T14:19:54.047Z,39.17
2018-09-14T14:22:23.151Z,38.78
2018-09-14T14:24:52.203Z,39.31
2018-09-14T14:27:21.289Z,38.95
2018-09-14T14:29:50.465Z,39.05
2018-09-14T14:32:19.546Z,39.18
2018-09-14T14:34:48.715Z,37.95
2018-09-14T14:37:17.858Z,38.51
2018-09-14T14:39:47.035Z,38.58
2018-09-14T14:42:17.275Z,38.50
2018-09-14T14:44:46.355Z,38.34
2018-09-14T14:47:15.548Z,38.48
2018-09-14T14:49:44.676Z,38.45
2018-09-14T14:52:13.941Z,37.67
2018-09-14T14:54:43.102Z,38.42
2018-09-14T14:57:12.367Z,38.65
2018-09-14T14:59:41.536Z,38.11
2018-09-14T15:02:10.637Z,38.38
2018-09-14T15:04:39.724Z,38.21
2018-09-14T15:07:09.031Z,37.83
2018-09-14T15:09:38.251Z,38.47
2018-09-14T15:12:07.365Z,38.49
2018-09-14T15:14:36.533Z,38.15
2018-09-14T15:17:05.729Z,38.37
2018-09-14T15:19:34.802Z,38.77
2018-09-14T15:22:03.957Z,38.70
2018-09-14T15:24:33.276Z,38.39
2018-09-14T15:27:02.626Z,38.26
2018-09-14T15:29:31.722Z,38.24
2018-09-14T15:32:00.784Z,38.24
2018-09-14T15:34:29.865Z,38.74
2018-09-14T15:36:58.983Z,38.78
2018-09-14T15:39:28.075Z,38.71
2018-09-14T15:41:57.163Z,38.88
2018-09-14T15:44:26.571Z,38.73
2018-09-14T15:46:55.649Z,38.82
2018-09-14T15:49:24.730Z,38.79
2018-09-14T15:51:53.980Z,38.61
2018-09-14T15:54:23.043Z,38.67
2018-09-14T15:56:52.106Z,39.00
2018-09-14T15:59:21.171Z,38.90
2018-09-14T16:01:50.265Z,38.67
2018-09-14T16:04:19.326Z,38.89
2018-09-14T16:06:48.602Z,38.61
2018-09-14T16:09:17.721Z,38.28
2018-09-14T16:11:46.828Z,38.33
2018-09-14T16:14:15.959Z,38.35
2018-09-14T16:16:45.024Z,38.32
2018-09-14T16:19:14.109Z,38.65
2018-09-14T16:21:43.198Z,38.57
2018-09-14T16:24:12.350Z,38.70
2018-09-14T16:26:41.576Z,38.67
2018-09-14T16:29:10.678Z,38.47
2018-09-14T16:31:39.736Z,38.45
2018-09-14T16:34:09.024Z,39.10
2018-09-14T16:36:38.147Z,39.04
2018-09-14T16:39:09.056Z,38.70
2018-09-14T16:41:38.256Z,38.92
2018-09-14T16:44:07.454Z,38.52
2018-09-14T16:46:36.787Z,38.79
2018-09-14T16:49:06.227Z,38.60
2018-09-14T16:51:35.360Z,38.68
2018-09-14T16:54:04.647Z,38.99
2018-09-14T16:56:33.711Z,38.79
2018-09-14T16:59:02.843Z,38.49
2018-09-14T17:01:31.938Z,38.89
2018-09-14T17:04:01.068Z,39.14
2018-09-14T17:06:30.136Z,38.79
2018-09-14T17:08:59.392Z,38.75
2018-09-14T17:11:28.651Z,38.98
2018-09-14T17:13:57.739Z,39.10
2018-09-14T17:16:26.819Z,38.76
2018-09-14T17:18:55.879Z,38.85
2018-09-14T17:21:25.052Z,38.37
2018-09-14T17:23:54.309Z,38.38
2018-09-14T17:26:23.530Z,38.44
2018-09-14T17:28:52.595Z,38.74
2018-09-14T17:31:21.666Z,38.41
2018-09-14T17:33:50.752Z,38.46
2018-09-14T17:36:20.119Z,38.88
2018-09-14T17:38:49.301Z,38.70
2018-09-14T17:41:18.499Z,38.19
2018-09-14T17:43:47.672Z,38.30
2018-09-14T17:46:16.822Z,38.12
2018-09-14T17:48:45.983Z,37.83
2018-09-14T17:51:15.207Z,38.29
2018-09-14T17:53:44.311Z,37.90
2018-09-14T17:56:13.479Z,38.04
2018-09-14T17:58:42.592Z,38.37
2018-09-14T18:01:11.728Z,38.75
2018-09-14T18:03:40.862Z,38.66
2018-09-14T18:06:10.008Z,38.49
2018-09-14T18:08:39.107Z,38.63
2018-09-14T18:11:08.144Z,38.70
2018-09-14T18:13:37.261Z,38.69
2018-09-14T18:16:06.467Z,38.80
2018-09-14T18:18:35.552Z,39.14
2018-09-14T18:21:04.606Z,38.88
2018-09-14T18:23:33.739Z,38.76
2018-09-14T18:26:02.960Z,39.29
2018-09-14T18:28:31.984Z,39.05
2018-09-14T18:31:01.068Z,38.77
2018-09-14T18:33:30.223Z,39.03
2018-09-14T18:35:59.331Z,39.11
2018-09-14T18:38:28.444Z,39.22
2018-09-14T18:40:57.625Z,39.38
2018-09-14T18:43:26.695Z,38.80
2018-09-14T18:45:55.790Z,39.07
2018-09-14T18:48:24.892Z,39.36
2018-09-14T18:50:54.185Z,39.08
2018-09-14T18:53:23.328Z,39.49
2018-09-14T18:55:52.522Z,39.55
2018-09-14T18:58:21.772Z,39.54
2018-09-14T19:00:51.042Z,39.21
2018-09-14T19:03:20.298Z,39.40
2018-09-14T19:05:49.401Z,39.14
2018-09-14T19:08:18.480Z,39.04
2018-09-14T19:10:47.718Z,39.21
2018-09-14T19:13:16.794Z,39.62
2018-09-14T19:15:46.048Z,39.50
2018-09-14T19:18:15.140Z,39.39
2018-09-14T19:20:44.287Z,39.57
2018-09-14T19:23:13.393Z,39.62
2018-09-14T19:25:42.452Z,39.51
2018-09-14T19:28:11.512Z,39.64
2018-09-14T19:30:40.667Z,39.68
2018-09-14T19:33:09.886Z,39.51
2018-09-14T19:35:38.947Z,39.54
2018-09-14T19:38:08.006Z,39.57
2018-09-14T19:40:37.092Z,39.48
2018-09-14T19:43:06.250Z,39.60
2018-09-14T19:45:35.340Z,39.44
2018-09-14T19:48:04.429Z,39.67
2018-09-14T19:50:33.551Z,39.98
2018-09-14T19:53:02.639Z,39.84
2018-09-14T19:55:32.033Z,39.82
2018-09-14T19:58:01.179Z,39.69
2018-09-14T20:00:30.333Z,39.94
2018-09-14T20:02:59.615Z,39.70
2018-09-14T20:05:28.713Z,39.98
2018-09-14T20:07:58.246Z,39.95
2018-09-14T20:10:27.315Z,39.85
2018-09-14T20:12:56.412Z,39.96
2018-09-14T20:15:25.533Z,40.03
2018-09-14T20:17:54.653Z,40.02
2018-09-14T20:20:23.920Z,40.28
2018-09-14T20:22:53.008Z,40.36
2018-09-14T20:25:22.121Z,40.28
2018-09-14T20:27:51.217Z,40.09
2018-09-14T20:30:21.239Z,40.07
2018-09-14T20:32:50.433Z,40.03
2018-09-14T20:35:19.503Z,40.24
2018-09-14T20:37:48.629Z,40.43
2018-09-14T20:40:17.808Z,39.97
2018-09-14T20:42:47.210Z,40.19
2018-09-14T20:45:16.350Z,40.25
2018-09-14T20:47:45.509Z,40.34
2018-09-14T20:50:14.611Z,40.42
2018-09-14T20:52:43.970Z,40.64
2018-09-14T20:55:13.107Z,40.59
2018-09-14T20:57:43.135Z,40.27
2018-09-14T21:00:12.219Z,40.76
2018-09-14T21:02:41.409Z,40.76
2018-09-14T21:05:10.565Z,40.69
2018-09-14T21:07:39.618Z,40.54
2018-09-14T21:10:09.167Z,40.56
2018-09-14T21:12:38.306Z,40.54
2018-09-14T21:15:07.420Z,40.76
2018-09-14T21:17:36.475Z,41.14
2018-09-14T21:20:05.558Z,40.87
2018-09-14T21:22:34.631Z,40.66
2018-09-14T21:25:03.900Z,41.11
2018-09-14T21:27:32.962Z,40.66
2018-09-14T21:30:02.079Z,40.70
2018-09-14T21:32:31.195Z,40.84
2018-09-14T21:35:00.257Z,40.79
2018-09-14T21:37:29.326Z,41.11
2018-09-14T21:39:58.407Z,41.15
2018-09-14T21:42:27.586Z,40.86
2018-09-14T21:44:56.648Z,40.89
2018-09-14T21:47:25.729Z,41.09
2018-09-14T21:49:54.854Z,40.88
2018-09-14T21:52:23.934Z,41.17
2018-09-14T21:54:53.056Z,41.31
2018-09-14T21:57:22.260Z,41.24
2018-09-14T21:59:51.668Z,41.38
2018-09-14T22:02:20.832Z,41.23
2018-09-14T22:04:49.950Z,41.60
2018-09-14T22:07:19.014Z,41.43
2018-09-14T22:09:48.115Z,41.42
2018-09-14T22:12:17.241Z,41.20
2018-09-14T22:14:46.334Z,41.14
2018-09-14T22:17:15.366Z,41.38
2018-09-14T22:19:44.426Z,41.59
2018-09-14T22:22:13.503Z,41.23
2018-09-14T22:24:42.608Z,41.33
2018-09-14T22:27:11.710Z,41.42
2018-09-14T22:29:40.795Z,41.32
2018-09-14T22:32:09.873Z,41.64
2018-09-14T22:34:39.104Z,41.70
2018-09-14T22:37:08.179Z,41.52
2018-09-14T22:39:37.295Z,41.33
2018-09-14T22:42:06.387Z,41.62
2018-09-14T22:44:35.481Z,41.60
2018-09-14T22:47:04.555Z,41.40
2018-09-14T22:49:33.675Z,41.89
2018-09-14T22:52:02.750Z,41.59
2018-09-14T22:54:31.857Z,41.72
2018-09-14T22:57:00.953Z,41.64
2018-09-14T22:59:30.065Z,41.61
2018-09-14T23:01:59.227Z,41.62
2018-09-14T23:04:28.324Z,41.91
2018-09-14T23:06:57.438Z,41.76
2018-09-14T23:09:26.622Z,41.97
2018-09-14T23:11:55.832Z,41.50
2018-09-14T23:14:24.913Z,41.78
2018-09-14T23:16:54.031Z,41.93
2018-09-14T23:19:23.106Z,41.97
2018-09-14T23:21:52.224Z,41.55
2018-09-14T23:24:21.298Z,41.76
2018-09-14T23:26:50.422Z,41.76
2018-09-14T23:29:19.492Z,41.89
2018-09-14T23:31:48.550Z,42.03
2018-09-14T23:34:17.618Z,41.83
2018-09-14T23:36:46.672Z,41.94
2018-09-14T23:39:15.761Z,41.58
2018-09-14T23:41:44.878Z,42.08
2018-09-14T23:44:13.966Z,41.85
2018-09-14T23:46:43.070Z,41.77
2018-09-14T23:49:12.164Z,41.97
2018-09-14T23:51:41.253Z,42.45
2018-09-14T23:54:10.785Z,41.72
2018-09-14T23:56:39.845Z,41.69
2018-09-14T23:59:08.980Z,42.00
